createdAt,value
2023-04-02T00:01:07.439Z,7.43
2023-04-02T00:06:33.747Z,6.40
2023-04-02T00:11:42.353Z,5.75
2023-04-02T00:16:46.282Z,5.70
2023-04-02T00:21:49.654Z,7.00
2023-04-02T00:27:00.027Z,6.35
2023-04-02T00:32:07.182Z,5.82
2023-04-02T00:37:13.518Z,7.05
2023-04-02T00:42:18.856Z,5.43
2023-04-02T00:47:34.864Z,4.88
2023-04-02T00:52:38.907Z,6.47
2023-04-02T00:57:45.659Z,6.07
2023-04-02T01:03:29.314Z,5.22
2023-04-02T01:08:43.024Z,4.88
2023-04-02T01:13:50.050Z,5.85
2023-04-02T01:18:54.864Z,5.32
2023-04-02T01:24:02.416Z,4.63
2023-04-02T01:29:11.427Z,5.85
2023-04-02T01:34:18.129Z,3.47
2023-04-02T01:39:31.359Z,4.00
2023-04-02T01:44:41.700Z,5.10
2023-04-02T01:49:45.398Z,6.18
2023-04-02T01:54:49.299Z,5.72
2023-04-02T01:59:54.484Z,6.53
2023-04-02T02:04:58.558Z,5.05
2023-04-02T02:10:03.126Z,5.00
2023-04-02T02:15:16.224Z,5.30
2023-04-02T02:20:20.221Z,5.72
2023-04-02T02:25:26.928Z,6.38
2023-04-02T02:30:32.267Z,6.13
2023-04-02T02:35:39.036Z,9.00
2023-04-02T02:40:46.623Z,4.95
2023-04-02T02:45:51.965Z,5.70
2023-04-02T02:50:56.134Z,6.13
2023-04-02T02:56:00.142Z,4.57
2023-04-02T03:06:20.781Z,4.10
2023-04-02T03:11:33.970Z,4.35
2023-04-02T03:21:50.449Z,3.65
2023-04-02T03:26:57.934Z,4.43
2023-04-02T03:32:05.911Z,5.05
2023-04-02T03:37:12.448Z,7.10
2023-04-02T03:42:21.535Z,5.85
2023-04-02T03:47:32.397Z,4.18
2023-04-02T03:52:37.210Z,6.28
2023-04-02T03:57:50.191Z,16.27
2023-04-02T04:02:59.902Z,7.90
2023-04-02T04:08:08.445Z,7.57
2023-04-02T04:13:14.329Z,7.68
2023-04-02T04:18:24.435Z,7.32
2023-04-02T04:23:31.066Z,7.57
2023-04-02T04:28:41.907Z,6.00
2023-04-02T04:33:50.684Z,6.03
2023-04-02T04:39:02.233Z,7.72
2023-04-02T04:44:08.140Z,5.53
2023-04-02T04:49:15.390Z,7.50
2023-04-02T04:54:20.433Z,7.55
2023-04-02T04:59:28.546Z,6.93
2023-04-02T05:04:36.188Z,6.70
2023-04-02T05:09:42.611Z,9.77
2023-04-02T05:14:52.430Z,8.67
2023-04-02T05:20:02.475Z,7.72
2023-04-02T05:25:17.728Z,7.55
2023-04-02T05:30:46.514Z,6.53
2023-04-02T05:35:58.231Z,9.63
2023-04-02T05:41:06.357Z,6.15
2023-04-02T05:46:17.154Z,4.15
2023-04-02T05:51:28.540Z,4.22
2023-04-02T05:56:34.418Z,5.53
2023-04-02T06:01:42.262Z,3.22
2023-04-02T06:07:08.932Z,3.15
2023-04-02T06:12:25.305Z,3.90
2023-04-02T06:17:31.087Z,2.28
2023-04-02T06:22:39.693Z,2.05
2023-04-02T06:27:44.722Z,2.35
2023-04-02T06:32:49.733Z,2.03
2023-04-02T06:37:58.679Z,1.70
2023-04-02T06:43:08.662Z,2.40
2023-04-02T06:48:32.239Z,2.53
2023-04-02T06:53:39.210Z,3.97
2023-04-02T06:58:44.925Z,5.65
2023-04-02T07:03:52.533Z,7.00
2023-04-02T07:09:24.815Z,9.85
2023-04-02T07:14:41.243Z,6.82
2023-04-02T07:19:50.439Z,8.52
2023-04-02T07:25:46.050Z,6.93
2023-04-02T07:31:15.743Z,4.95
2023-04-02T07:36:57.670Z,3.92
2023-04-02T07:42:09.005Z,1.45
2023-04-02T07:47:32.787Z,6.38
2023-04-02T07:52:42.623Z,1.42
2023-04-02T07:57:51.310Z,1.88
2023-04-02T08:02:57.288Z,1.63
2023-04-02T08:08:13.267Z,2.08
2023-04-02T08:13:26.229Z,5.70
2023-04-02T08:18:36.351Z,6.40
2023-04-02T08:28:52.316Z,2.85
2023-04-02T08:34:10.995Z,6.63
2023-04-02T08:39:31.547Z,3.55
2023-04-02T08:44:44.433Z,6.10
2023-04-02T08:49:54.900Z,2.05
2023-04-02T08:55:25.532Z,2.08
2023-04-02T09:00:40.231Z,1.67
2023-04-02T09:06:17.605Z,0.80
2023-04-02T09:11:40.090Z,0.90
2023-04-02T09:17:12.836Z,2.38
2023-04-02T09:22:34.615Z,1.17
2023-04-02T09:28:07.896Z,1.10
2023-04-02T09:34:00.370Z,1.40
2023-04-02T09:51:22.549Z,1.13
2023-04-02T09:56:38.814Z,0.75
2023-04-02T10:02:21.076Z,4.22
2023-04-02T10:08:04.823Z,1.10
2023-04-02T10:26:10.046Z,1.08
2023-04-02T10:37:50.379Z,1.25
2023-04-02T10:43:18.995Z,1.02
2023-04-02T10:54:48.332Z,1.70
2023-04-02T11:00:03.580Z,2.75
2023-04-02T11:05:41.149Z,0.77
2023-04-02T11:10:57.780Z,1.52
2023-04-02T11:22:33.989Z,0.82
2023-04-02T11:28:12.563Z,0.50
2023-04-02T11:33:54.660Z,0.55
2023-04-02T11:39:26.647Z,0.77
2023-04-02T11:44:41.438Z,0.93
2023-04-02T11:50:03.064Z,0.45
2023-04-02T11:55:38.422Z,0.60
2023-04-02T12:01:19.004Z,0.32
2023-04-02T12:06:30.458Z,0.55
2023-04-02T12:11:59.558Z,1.58
2023-04-02T12:17:19.023Z,0.60
2023-04-02T12:22:45.199Z,0.40
2023-04-02T12:33:58.310Z,0.80
2023-04-02T12:39:14.772Z,11.55
2023-04-02T12:44:42.571Z,0.93
2023-04-02T12:55:24.458Z,1.17
2023-04-02T13:00:45.791Z,0.95
2023-04-02T13:06:33.111Z,1.05
2023-04-02T13:11:54.504Z,1.35
2023-04-02T13:17:06.411Z,0.80
2023-04-02T13:22:40.981Z,0.80
2023-04-02T13:27:49.299Z,1.17
2023-04-02T13:33:23.337Z,1.05
2023-04-02T13:38:36.746Z,1.30
2023-04-02T13:44:06.979Z,2.60
2023-04-02T13:55:03.147Z,3.28
2023-04-02T14:00:38.998Z,1.88
2023-04-02T14:06:03.011Z,2.30
2023-04-02T14:11:29.724Z,2.20
2023-04-02T14:16:48.132Z,3.28
2023-04-02T14:22:23.323Z,2.20
2023-04-02T14:27:55.405Z,1.45
2023-04-02T14:33:14.117Z,1.97
2023-04-02T14:38:31.821Z,2.53
2023-04-02T14:43:38.755Z,5.57
2023-04-02T14:49:01.116Z,2.35
2023-04-02T14:54:36.645Z,2.47
2023-04-02T14:59:45.800Z,3.47
2023-04-02T15:05:01.802Z,2.13
2023-04-02T15:10:29.654Z,3.28
2023-04-02T15:15:55.969Z,5.32
2023-04-02T15:21:10.455Z,3.20
2023-04-02T15:26:26.148Z,3.42
2023-04-02T15:31:43.667Z,2.70
2023-04-02T15:37:09.411Z,2.50
2023-04-02T15:42:37.595Z,5.50
2023-04-02T15:48:02.560Z,4.20
2023-04-02T15:53:11.747Z,2.60
2023-04-02T16:05:04.986Z,3.33
2023-04-02T16:10:47.006Z,4.03
2023-04-02T16:16:12.866Z,3.65
2023-04-02T16:21:42.731Z,3.53
2023-04-02T16:26:58.610Z,4.53
2023-04-02T16:32:12.691Z,4.43
2023-04-02T16:37:22.994Z,2.30
2023-04-02T16:42:41.850Z,6.78
2023-04-02T16:48:13.915Z,4.50
2023-04-02T16:53:35.987Z,4.93
2023-04-02T16:59:11.030Z,5.32
2023-04-02T17:04:53.539Z,5.13
2023-04-02T17:10:15.503Z,3.90
2023-04-02T17:15:29.110Z,3.58
2023-04-02T17:20:33.072Z,2.45
2023-04-02T17:26:06.128Z,3.55
2023-04-02T17:31:19.651Z,2.03
2023-04-02T17:36:43.515Z,1.80
2023-04-02T17:42:07.100Z,3.38
2023-04-02T17:47:41.502Z,3.17
2023-04-02T17:52:56.978Z,14.25
2023-04-02T17:59:21.211Z,14.77
2023-04-02T18:04:39.641Z,6.45
2023-04-02T18:09:48.085Z,13.30
2023-04-02T18:22:39.850Z,4.80
2023-04-02T18:28:24.827Z,3.92
2023-04-02T18:33:42.461Z,3.05
2023-04-02T18:38:53.246Z,5.90
2023-04-02T18:44:05.167Z,3.22
2023-04-02T18:54:59.280Z,5.43
2023-04-02T19:05:58.176Z,4.78
2023-04-02T19:11:42.547Z,4.13
2023-04-02T19:17:13.316Z,5.30
2023-04-02T19:22:40.456Z,3.42
2023-04-02T19:28:14.304Z,5.15
2023-04-02T19:33:41.458Z,5.20
2023-04-02T19:39:01.759Z,5.63
2023-04-02T19:44:12.641Z,4.10
2023-04-02T19:49:23.416Z,3.60
2023-04-02T19:54:46.304Z,5.05
2023-04-02T20:00:09.734Z,4.32
2023-04-02T20:05:18.379Z,4.97
2023-04-02T20:16:39.383Z,6.25
2023-04-02T20:21:52.947Z,3.53
2023-04-02T20:27:09.540Z,4.40
2023-04-02T20:38:54.548Z,4.72
2023-04-02T20:44:01.637Z,6.20
2023-04-02T20:49:16.989Z,4.55
2023-04-02T20:54:25.626Z,5.95
2023-04-02T20:59:43.522Z,4.05
2023-04-02T21:05:05.245Z,5.00
2023-04-02T21:10:16.793Z,5.78
2023-04-02T21:15:20.467Z,5.00
2023-04-02T21:20:24.362Z,5.05
2023-04-02T21:25:40.773Z,3.85
2023-04-02T21:30:57.449Z,4.32
2023-04-02T21:36:09.742Z,4.25
2023-04-02T21:41:22.783Z,3.13
2023-04-02T21:46:38.666Z,4.35
2023-04-02T21:51:45.910Z,4.40
2023-04-02T21:56:57.819Z,4.40
2023-04-02T22:02:04.862Z,4.03
2023-04-02T22:07:15.616Z,3.47
2023-04-02T22:12:21.402Z,3.30
2023-04-02T22:17:25.270Z,2.03
2023-04-02T22:22:40.358Z,3.20
2023-04-02T22:27:57.526Z,4.05
2023-04-02T22:33:05.337Z,3.15
2023-04-02T22:38:08.828Z,3.38
2023-04-02T22:43:14.443Z,3.55
2023-04-02T22:48:20.462Z,2.58
2023-04-02T22:53:23.801Z,3.70
2023-04-02T22:58:49.304Z,3.63
2023-04-02T23:03:59.435Z,2.47
2023-04-02T23:09:03.378Z,2.83
2023-04-02T23:14:13.982Z,3.20
2023-04-02T23:19:17.882Z,4.05
2023-04-02T23:24:26.761Z,2.80
2023-04-02T23:29:37.095Z,3.53
2023-04-02T23:34:40.617Z,3.97
2023-04-02T23:39:47.982Z,3.20
2023-04-02T23:45:09.251Z,2.95
2023-04-02T23:50:23.324Z,4.55
2023-04-02T23:55:32.622Z,2.72
